sensor_id;sensor_type;location;lat;lon;timestamp;P1;durP1;ratioP1;P2;durP2;ratioP2
71679;SDS011;59512;42.662;23.254;2023-08-06T00:00:39;11.47;;;5.80;;
71679;SDS011;59512;42.662;23.254;2023-08-06T00:03:05;10.77;;;4.75;;
71679;SDS011;59512;42.662;23.254;2023-08-06T00:05:30;10.03;;;5.20;;
71679;SDS011;59512;42.662;23.254;2023-08-06T00:07:56;8.33;;;4.97;;
71679;SDS011;59512;42.662;23.254;2023-08-06T00:10:21;9.50;;;5.27;;
71679;SDS011;59512;42.662;23.254;2023-08-06T00:12:47;10.02;;;4.72;;
71679;SDS011;59512;42.662;23.254;2023-08-06T00:15:13;10.00;;;5.03;;
71679;SDS011;59512;42.662;23.254;2023-08-06T00:17:39;11.40;;;4.68;;
71679;SDS011;59512;42.662;23.254;2023-08-06T00:20:04;8.57;;;4.83;;
71679;SDS011;59512;42.662;23.254;2023-08-06T00:22:34;10.73;;;5.20;;
71679;SDS011;59512;42.662;23.254;2023-08-06T00:25:00;9.27;;;4.82;;
71679;SDS011;59512;42.662;23.254;2023-08-06T00:27:26;8.23;;;5.03;;
71679;SDS011;59512;42.662;23.254;2023-08-06T00:29:51;11.07;;;5.60;;
71679;SDS011;59512;42.662;23.254;2023-08-06T00:32:17;10.15;;;5.20;;
71679;SDS011;59512;42.662;23.254;2023-08-06T00:34:42;8.60;;;5.03;;
71679;SDS011;59512;42.662;23.254;2023-08-06T00:37:08;9.73;;;4.80;;
71679;SDS011;59512;42.662;23.254;2023-08-06T00:39:33;9.57;;;5.03;;
71679;SDS011;59512;42.662;23.254;2023-08-06T00:41:58;8.88;;;4.57;;
71679;SDS011;59512;42.662;23.254;2023-08-06T00:44:24;8.83;;;4.63;;
71679;SDS011;59512;42.662;23.254;2023-08-06T00:46:49;9.27;;;4.30;;
71679;SDS011;59512;42.662;23.254;2023-08-06T00:49:15;8.07;;;3.63;;
71679;SDS011;59512;42.662;23.254;2023-08-06T00:51:40;6.65;;;3.20;;
71679;SDS011;59512;42.662;23.254;2023-08-06T00:54:07;8.75;;;3.70;;
71679;SDS011;59512;42.662;23.254;2023-08-06T00:56:34;8.43;;;3.63;;
71679;SDS011;59512;42.662;23.254;2023-08-06T00:59:00;8.80;;;3.78;;
71679;SDS011;59512;42.662;23.254;2023-08-06T01:01:26;8.07;;;3.50;;
71679;SDS011;59512;42.662;23.254;2023-08-06T01:03:52;7.10;;;4.03;;
71679;SDS011;59512;42.662;23.254;2023-08-06T01:06:19;8.25;;;3.40;;
71679;SDS011;59512;42.662;23.254;2023-08-06T01:09:15;7.07;;;3.70;;
71679;SDS011;59512;42.662;23.254;2023-08-06T01:11:44;8.20;;;4.20;;
71679;SDS011;59512;42.662;23.254;2023-08-06T01:17:18;9.27;;;4.80;;
71679;SDS011;59512;42.662;23.254;2023-08-06T01:19:43;8.02;;;4.82;;
71679;SDS011;59512;42.662;23.254;2023-08-06T01:22:09;8.60;;;4.07;;
71679;SDS011;59512;42.662;23.254;2023-08-06T01:24:34;9.03;;;4.53;;
71679;SDS011;59512;42.662;23.254;2023-08-06T01:29:35;10.07;;;4.90;;
71679;SDS011;59512;42.662;23.254;2023-08-06T01:32:04;7.88;;;4.80;;
71679;SDS011;59512;42.662;23.254;2023-08-06T01:34:31;8.75;;;4.95;;
71679;SDS011;59512;42.662;23.254;2023-08-06T01:36:58;9.15;;;4.57;;
71679;SDS011;59512;42.662;23.254;2023-08-06T01:39:24;8.13;;;4.50;;
71679;SDS011;59512;42.662;23.254;2023-08-06T01:41:50;9.73;;;5.10;;
71679;SDS011;59512;42.662;23.254;2023-08-06T01:44:15;9.20;;;4.73;;
71679;SDS011;59512;42.662;23.254;2023-08-06T01:46:41;9.27;;;4.83;;
71679;SDS011;59512;42.662;23.254;2023-08-06T01:49:06;8.88;;;4.30;;
71679;SDS011;59512;42.662;23.254;2023-08-06T01:51:32;7.27;;;4.00;;
71679;SDS011;59512;42.662;23.254;2023-08-06T01:53:57;7.70;;;4.87;;
71679;SDS011;59512;42.662;23.254;2023-08-06T01:56:23;8.93;;;4.80;;
71679;SDS011;59512;42.662;23.254;2023-08-06T01:58:48;7.57;;;4.47;;
71679;SDS011;59512;42.662;23.254;2023-08-06T02:01:14;7.00;;;3.67;;
71679;SDS011;59512;42.662;23.254;2023-08-06T02:03:39;8.50;;;4.93;;
71679;SDS011;59512;42.662;23.254;2023-08-06T02:06:04;8.47;;;4.40;;
71679;SDS011;59512;42.662;23.254;2023-08-06T02:08:30;8.57;;;4.82;;
71679;SDS011;59512;42.662;23.254;2023-08-06T02:10:55;8.50;;;4.93;;
71679;SDS011;59512;42.662;23.254;2023-08-06T02:13:21;12.57;;;5.00;;
71679;SDS011;59512;42.662;23.254;2023-08-06T02:15:46;9.80;;;5.47;;
71679;SDS011;59512;42.662;23.254;2023-08-06T02:18:15;8.43;;;4.90;;
71679;SDS011;59512;42.662;23.254;2023-08-06T02:20:40;9.93;;;4.85;;
71679;SDS011;59512;42.662;23.254;2023-08-06T02:23:06;9.27;;;4.80;;
71679;SDS011;59512;42.662;23.254;2023-08-06T02:25:32;11.02;;;5.22;;
71679;SDS011;59512;42.662;23.254;2023-08-06T02:27:57;12.57;;;5.63;;
71679;SDS011;59512;42.662;23.254;2023-08-06T02:30:22;11.23;;;5.83;;
71679;SDS011;59512;42.662;23.254;2023-08-06T02:32:48;12.47;;;5.87;;
71679;SDS011;59512;42.662;23.254;2023-08-06T02:35:13;12.00;;;5.77;;
71679;SDS011;59512;42.662;23.254;2023-08-06T02:37:38;10.43;;;5.85;;
71679;SDS011;59512;42.662;23.254;2023-08-06T02:40:04;10.17;;;5.37;;
71679;SDS011;59512;42.662;23.254;2023-08-06T02:42:30;9.73;;;5.30;;
71679;SDS011;59512;42.662;23.254;2023-08-06T02:44:55;8.73;;;4.75;;
71679;SDS011;59512;42.662;23.254;2023-08-06T02:47:20;9.93;;;4.00;;
71679;SDS011;59512;42.662;23.254;2023-08-06T02:49:46;8.77;;;4.43;;
71679;SDS011;59512;42.662;23.254;2023-08-06T02:52:12;8.45;;;4.90;;
71679;SDS011;59512;42.662;23.254;2023-08-06T02:54:37;8.93;;;4.70;;
71679;SDS011;59512;42.662;23.254;2023-08-06T02:57:03;9.15;;;5.00;;
71679;SDS011;59512;42.662;23.254;2023-08-06T02:59:29;8.23;;;4.80;;
71679;SDS011;59512;42.662;23.254;2023-08-06T03:01:55;9.52;;;5.32;;
71679;SDS011;59512;42.662;23.254;2023-08-06T03:04:20;11.00;;;5.87;;
71679;SDS011;59512;42.662;23.254;2023-08-06T03:06:46;9.40;;;5.13;;
71679;SDS011;59512;42.662;23.254;2023-08-06T03:09:11;8.82;;;4.70;;
71679;SDS011;59512;42.662;23.254;2023-08-06T03:11:36;8.88;;;4.85;;
71679;SDS011;59512;42.662;23.254;2023-08-06T03:14:02;8.63;;;5.17;;
71679;SDS011;59512;42.662;23.254;2023-08-06T03:16:27;9.83;;;5.20;;
71679;SDS011;59512;42.662;23.254;2023-08-06T03:18:53;8.80;;;4.80;;
71679;SDS011;59512;42.662;23.254;2023-08-06T03:21:18;8.75;;;4.85;;
71679;SDS011;59512;42.662;23.254;2023-08-06T03:23:46;8.18;;;3.70;;
71679;SDS011;59512;42.662;23.254;2023-08-06T03:26:12;9.60;;;4.05;;
71679;SDS011;59512;42.662;23.254;2023-08-06T03:28:37;8.35;;;4.40;;
71679;SDS011;59512;42.662;23.254;2023-08-06T03:31:03;8.23;;;4.00;;
71679;SDS011;59512;42.662;23.254;2023-08-06T03:33:29;7.55;;;3.75;;
71679;SDS011;59512;42.662;23.254;2023-08-06T03:35:55;9.83;;;4.63;;
71679;SDS011;59512;42.662;23.254;2023-08-06T03:38:21;8.40;;;4.13;;
71679;SDS011;59512;42.662;23.254;2023-08-06T03:40:47;6.53;;;3.55;;
71679;SDS011;59512;42.662;23.254;2023-08-06T03:43:13;8.73;;;4.10;;
71679;SDS011;59512;42.662;23.254;2023-08-06T03:45:38;11.97;;;4.83;;
71679;SDS011;59512;42.662;23.254;2023-08-06T03:48:04;7.87;;;4.43;;
71679;SDS011;59512;42.662;23.254;2023-08-06T03:50:29;9.15;;;4.97;;
71679;SDS011;59512;42.662;23.254;2023-08-06T03:52:54;9.00;;;5.17;;
71679;SDS011;59512;42.662;23.254;2023-08-06T03:55:20;9.23;;;5.07;;
71679;SDS011;59512;42.662;23.254;2023-08-06T03:57:46;8.73;;;4.50;;
71679;SDS011;59512;42.662;23.254;2023-08-06T04:00:11;8.67;;;4.63;;
71679;SDS011;59512;42.662;23.254;2023-08-06T04:02:37;8.52;;;4.70;;
71679;SDS011;59512;42.662;23.254;2023-08-06T04:05:03;8.40;;;4.33;;
71679;SDS011;59512;42.662;23.254;2023-08-06T04:07:28;8.90;;;5.00;;
71679;SDS011;59512;42.662;23.254;2023-08-06T04:09:54;9.57;;;5.30;;
71679;SDS011;59512;42.662;23.254;2023-08-06T04:12:22;9.90;;;5.47;;
71679;SDS011;59512;42.662;23.254;2023-08-06T04:14:47;9.85;;;5.15;;
71679;SDS011;59512;42.662;23.254;2023-08-06T04:17:13;7.53;;;4.60;;
71679;SDS011;59512;42.662;23.254;2023-08-06T04:19:38;10.63;;;4.70;;
71679;SDS011;59512;42.662;23.254;2023-08-06T04:22:03;8.70;;;5.03;;
71679;SDS011;59512;42.662;23.254;2023-08-06T04:24:29;10.97;;;5.50;;
71679;SDS011;59512;42.662;23.254;2023-08-06T04:26:54;11.02;;;5.75;;
71679;SDS011;59512;42.662;23.254;2023-08-06T04:29:19;9.23;;;5.63;;
71679;SDS011;59512;42.662;23.254;2023-08-06T04:31:45;9.00;;;6.10;;
71679;SDS011;59512;42.662;23.254;2023-08-06T04:34:10;9.67;;;5.90;;
71679;SDS011;59512;42.662;23.254;2023-08-06T04:36:36;10.38;;;5.88;;
71679;SDS011;59512;42.662;23.254;2023-08-06T04:39:03;10.55;;;6.03;;
71679;SDS011;59512;42.662;23.254;2023-08-06T04:41:29;10.30;;;6.23;;
71679;SDS011;59512;42.662;23.254;2023-08-06T04:43:54;8.90;;;6.00;;
71679;SDS011;59512;42.662;23.254;2023-08-06T04:46:22;12.75;;;7.13;;
71679;SDS011;59512;42.662;23.254;2023-08-06T04:48:47;11.17;;;8.07;;
71679;SDS011;59512;42.662;23.254;2023-08-06T04:51:12;10.30;;;7.37;;
71679;SDS011;59512;42.662;23.254;2023-08-06T04:53:38;10.20;;;7.47;;
71679;SDS011;59512;42.662;23.254;2023-08-06T04:56:03;11.20;;;8.33;;
71679;SDS011;59512;42.662;23.254;2023-08-06T04:58:29;12.00;;;7.50;;
71679;SDS011;59512;42.662;23.254;2023-08-06T05:00:54;9.90;;;7.20;;
71679;SDS011;59512;42.662;23.254;2023-08-06T05:03:20;12.07;;;8.20;;
71679;SDS011;59512;42.662;23.254;2023-08-06T05:05:45;11.10;;;8.13;;
71679;SDS011;59512;42.662;23.254;2023-08-06T05:08:14;11.93;;;8.90;;
71679;SDS011;59512;42.662;23.254;2023-08-06T05:10:46;12.23;;;9.73;;
71679;SDS011;59512;42.662;23.254;2023-08-06T05:13:11;13.10;;;9.25;;
71679;SDS011;59512;42.662;23.254;2023-08-06T05:15:37;13.83;;;10.43;;
71679;SDS011;59512;42.662;23.254;2023-08-06T05:18:04;14.00;;;11.00;;
71679;SDS011;59512;42.662;23.254;2023-08-06T05:20:30;13.20;;;10.32;;
71679;SDS011;59512;42.662;23.254;2023-08-06T05:22:55;12.33;;;9.10;;
71679;SDS011;59512;42.662;23.254;2023-08-06T05:25:21;11.43;;;8.30;;
71679;SDS011;59512;42.662;23.254;2023-08-06T05:27:46;12.07;;;8.60;;
71679;SDS011;59512;42.662;23.254;2023-08-06T05:30:11;11.17;;;7.97;;
71679;SDS011;59512;42.662;23.254;2023-08-06T05:32:37;11.10;;;7.72;;
71679;SDS011;59512;42.662;23.254;2023-08-06T05:35:02;11.20;;;7.20;;
71679;SDS011;59512;42.662;23.254;2023-08-06T05:37:28;10.60;;;7.43;;
71679;SDS011;59512;42.662;23.254;2023-08-06T05:39:53;10.27;;;7.67;;
71679;SDS011;59512;42.662;23.254;2023-08-06T05:42:19;11.18;;;7.65;;
71679;SDS011;59512;42.662;23.254;2023-08-06T05:44:44;11.60;;;7.37;;
71679;SDS011;59512;42.662;23.254;2023-08-06T05:47:09;11.27;;;7.80;;
71679;SDS011;59512;42.662;23.254;2023-08-06T05:49:35;12.00;;;8.57;;
71679;SDS011;59512;42.662;23.254;2023-08-06T05:52:00;14.10;;;10.02;;
71679;SDS011;59512;42.662;23.254;2023-08-06T05:54:27;13.03;;;9.57;;
71679;SDS011;59512;42.662;23.254;2023-08-06T05:56:53;12.45;;;9.40;;
71679;SDS011;59512;42.662;23.254;2023-08-06T05:59:18;14.57;;;10.70;;
71679;SDS011;59512;42.662;23.254;2023-08-06T06:01:43;14.87;;;11.00;;
71679;SDS011;59512;42.662;23.254;2023-08-06T06:04:09;15.07;;;11.23;;
71679;SDS011;59512;42.662;23.254;2023-08-06T06:06:34;15.43;;;10.87;;
71679;SDS011;59512;42.662;23.254;2023-08-06T06:09:00;17.05;;;11.90;;
71679;SDS011;59512;42.662;23.254;2023-08-06T06:11:25;15.27;;;11.53;;
71679;SDS011;59512;42.662;23.254;2023-08-06T06:13:50;19.67;;;12.23;;
71679;SDS011;59512;42.662;23.254;2023-08-06T06:16:16;17.73;;;12.95;;
71679;SDS011;59512;42.662;23.254;2023-08-06T06:18:42;16.17;;;11.57;;
71679;SDS011;59512;42.662;23.254;2023-08-06T06:21:07;17.87;;;12.30;;
71679;SDS011;59512;42.662;23.254;2023-08-06T06:23:33;18.92;;;11.32;;
71679;SDS011;59512;42.662;23.254;2023-08-06T06:25:59;14.20;;;10.38;;
71679;SDS011;59512;42.662;23.254;2023-08-06T06:28:24;14.75;;;10.43;;
71679;SDS011;59512;42.662;23.254;2023-08-06T06:30:51;15.40;;;10.15;;
71679;SDS011;59512;42.662;23.254;2023-08-06T06:33:16;13.77;;;10.10;;
71679;SDS011;59512;42.662;23.254;2023-08-06T06:35:42;13.73;;;10.57;;
71679;SDS011;59512;42.662;23.254;2023-08-06T06:38:07;13.80;;;9.80;;
71679;SDS011;59512;42.662;23.254;2023-08-06T06:40:32;13.10;;;9.57;;
71679;SDS011;59512;42.662;23.254;2023-08-06T06:42:58;12.87;;;9.70;;
71679;SDS011;59512;42.662;23.254;2023-08-06T06:45:23;13.68;;;8.82;;
71679;SDS011;59512;42.662;23.254;2023-08-06T06:47:49;12.10;;;9.00;;
71679;SDS011;59512;42.662;23.254;2023-08-06T06:50:14;13.53;;;9.70;;
71679;SDS011;59512;42.662;23.254;2023-08-06T06:52:40;12.07;;;8.43;;
71679;SDS011;59512;42.662;23.254;2023-08-06T06:55:06;11.20;;;7.82;;
71679;SDS011;59512;42.662;23.254;2023-08-06T06:57:31;9.95;;;7.60;;
71679;SDS011;59512;42.662;23.254;2023-08-06T06:59:57;10.60;;;7.20;;
71679;SDS011;59512;42.662;23.254;2023-08-06T07:02:22;10.97;;;6.40;;
71679;SDS011;59512;42.662;23.254;2023-08-06T07:04:48;9.50;;;6.30;;
71679;SDS011;59512;42.662;23.254;2023-08-06T07:07:14;10.70;;;7.75;;
71679;SDS011;59512;42.662;23.254;2023-08-06T07:09:40;9.77;;;6.97;;
71679;SDS011;59512;42.662;23.254;2023-08-06T07:12:05;9.27;;;6.30;;
71679;SDS011;59512;42.662;23.254;2023-08-06T07:14:31;7.68;;;5.22;;
71679;SDS011;59512;42.662;23.254;2023-08-06T07:16:56;8.33;;;4.87;;
71679;SDS011;59512;42.662;23.254;2023-08-06T07:19:22;7.70;;;4.43;;
71679;SDS011;59512;42.662;23.254;2023-08-06T07:21:48;8.07;;;4.15;;
71679;SDS011;59512;42.662;23.254;2023-08-06T07:24:13;8.67;;;4.63;;
71679;SDS011;59512;42.662;23.254;2023-08-06T07:26:39;6.97;;;3.83;;
71679;SDS011;59512;42.662;23.254;2023-08-06T07:29:04;6.90;;;3.80;;
71679;SDS011;59512;42.662;23.254;2023-08-06T07:31:30;7.80;;;3.80;;
71679;SDS011;59512;42.662;23.254;2023-08-06T07:33:55;7.80;;;4.10;;
71679;SDS011;59512;42.662;23.254;2023-08-06T07:36:20;7.70;;;3.60;;
71679;SDS011;59512;42.662;23.254;2023-08-06T07:38:46;6.95;;;3.90;;
71679;SDS011;59512;42.662;23.254;2023-08-06T07:41:13;6.70;;;4.03;;
71679;SDS011;59512;42.662;23.254;2023-08-06T07:43:39;6.63;;;3.88;;
71679;SDS011;59512;42.662;23.254;2023-08-06T07:46:04;6.67;;;3.70;;
71679;SDS011;59512;42.662;23.254;2023-08-06T07:48:30;7.53;;;4.45;;
71679;SDS011;59512;42.662;23.254;2023-08-06T07:50:56;6.50;;;4.17;;
71679;SDS011;59512;42.662;23.254;2023-08-06T07:53:22;7.03;;;4.13;;
71679;SDS011;59512;42.662;23.254;2023-08-06T07:55:51;7.00;;;4.20;;
71679;SDS011;59512;42.662;23.254;2023-08-06T07:58:17;7.25;;;4.25;;
71679;SDS011;59512;42.662;23.254;2023-08-06T08:00:43;6.75;;;3.67;;
71679;SDS011;59512;42.662;23.254;2023-08-06T08:03:10;6.40;;;3.80;;
71679;SDS011;59512;42.662;23.254;2023-08-06T08:05:42;7.38;;;3.85;;
71679;SDS011;59512;42.662;23.254;2023-08-06T08:08:08;7.28;;;4.15;;
71679;SDS011;59512;42.662;23.254;2023-08-06T08:10:33;7.57;;;4.63;;
71679;SDS011;59512;42.662;23.254;2023-08-06T08:12:59;8.57;;;4.83;;
71679;SDS011;59512;42.662;23.254;2023-08-06T08:15:29;8.90;;;4.90;;
71679;SDS011;59512;42.662;23.254;2023-08-06T08:17:55;9.60;;;5.40;;
71679;SDS011;59512;42.662;23.254;2023-08-06T08:20:21;7.90;;;4.87;;
71679;SDS011;59512;42.662;23.254;2023-08-06T08:22:46;6.97;;;4.22;;
71679;SDS011;59512;42.662;23.254;2023-08-06T08:25:12;7.10;;;4.43;;
71679;SDS011;59512;42.662;23.254;2023-08-06T08:27:38;7.30;;;4.22;;
71679;SDS011;59512;42.662;23.254;2023-08-06T08:30:03;7.27;;;3.90;;
71679;SDS011;59512;42.662;23.254;2023-08-06T08:32:29;6.35;;;3.67;;
71679;SDS011;59512;42.662;23.254;2023-08-06T08:34:55;7.03;;;3.73;;
71679;SDS011;59512;42.662;23.254;2023-08-06T08:37:20;6.90;;;3.70;;
71679;SDS011;59512;42.662;23.254;2023-08-06T08:39:45;6.27;;;3.97;;
71679;SDS011;59512;42.662;23.254;2023-08-06T08:42:11;7.27;;;4.27;;
71679;SDS011;59512;42.662;23.254;2023-08-06T08:44:36;7.28;;;4.18;;
71679;SDS011;59512;42.662;23.254;2023-08-06T08:47:07;7.45;;;4.20;;
71679;SDS011;59512;42.662;23.254;2023-08-06T08:49:34;7.97;;;4.30;;
71679;SDS011;59512;42.662;23.254;2023-08-06T08:52:00;7.20;;;3.80;;
71679;SDS011;59512;42.662;23.254;2023-08-06T08:54:27;9.23;;;4.32;;
71679;SDS011;59512;42.662;23.254;2023-08-06T08:56:53;7.70;;;3.97;;
71679;SDS011;59512;42.662;23.254;2023-08-06T08:59:20;10.68;;;4.43;;
71679;SDS011;59512;42.662;23.254;2023-08-06T09:01:45;7.97;;;4.57;;
71679;SDS011;59512;42.662;23.254;2023-08-06T09:04:15;6.82;;;3.85;;
71679;SDS011;59512;42.662;23.254;2023-08-06T09:06:41;7.03;;;4.20;;
71679;SDS011;59512;42.662;23.254;2023-08-06T09:09:12;7.23;;;4.43;;
71679;SDS011;59512;42.662;23.254;2023-08-06T09:11:41;8.43;;;4.25;;
71679;SDS011;59512;42.662;23.254;2023-08-06T09:14:08;8.15;;;4.13;;
71679;SDS011;59512;42.662;23.254;2023-08-06T09:16:37;6.70;;;4.10;;
71679;SDS011;59512;42.662;23.254;2023-08-06T09:19:09;7.25;;;3.88;;
71679;SDS011;59512;42.662;23.254;2023-08-06T09:21:38;7.55;;;3.80;;
71679;SDS011;59512;42.662;23.254;2023-08-06T09:24:08;9.43;;;4.32;;
71679;SDS011;59512;42.662;23.254;2023-08-06T09:26:34;7.95;;;3.92;;
71679;SDS011;59512;42.662;23.254;2023-08-06T09:29:00;8.00;;;4.27;;
71679;SDS011;59512;42.662;23.254;2023-08-06T09:31:31;7.45;;;3.72;;
71679;SDS011;59512;42.662;23.254;2023-08-06T09:33:59;6.68;;;3.83;;
71679;SDS011;59512;42.662;23.254;2023-08-06T09:36:25;7.03;;;4.13;;
71679;SDS011;59512;42.662;23.254;2023-08-06T09:38:50;7.10;;;3.73;;
71679;SDS011;59512;42.662;23.254;2023-08-06T09:41:25;7.57;;;4.15;;
71679;SDS011;59512;42.662;23.254;2023-08-06T09:43:52;7.00;;;4.07;;
71679;SDS011;59512;42.662;23.254;2023-08-06T09:46:18;8.45;;;4.30;;
71679;SDS011;59512;42.662;23.254;2023-08-06T09:48:46;6.93;;;3.90;;
71679;SDS011;59512;42.662;23.254;2023-08-06T09:51:14;6.80;;;3.63;;
71679;SDS011;59512;42.662;23.254;2023-08-06T09:53:40;5.60;;;2.60;;
71679;SDS011;59512;42.662;23.254;2023-08-06T09:56:05;6.85;;;3.00;;
71679;SDS011;59512;42.662;23.254;2023-08-06T09:58:31;6.73;;;3.37;;
71679;SDS011;59512;42.662;23.254;2023-08-06T10:00:58;6.75;;;2.70;;
71679;SDS011;59512;42.662;23.254;2023-08-06T10:03:24;4.90;;;2.60;;
71679;SDS011;59512;42.662;23.254;2023-08-06T10:05:50;6.15;;;2.70;;
71679;SDS011;59512;42.662;23.254;2023-08-06T10:08:16;5.53;;;3.20;;
71679;SDS011;59512;42.662;23.254;2023-08-06T10:10:42;5.70;;;3.57;;
71679;SDS011;59512;42.662;23.254;2023-08-06T10:13:07;5.90;;;3.00;;
71679;SDS011;59512;42.662;23.254;2023-08-06T10:15:33;5.82;;;3.03;;
71679;SDS011;59512;42.662;23.254;2023-08-06T10:17:59;5.93;;;3.20;;
71679;SDS011;59512;42.662;23.254;2023-08-06T10:20:25;6.30;;;3.10;;
71679;SDS011;59512;42.662;23.254;2023-08-06T10:23:06;6.87;;;2.80;;
71679;SDS011;59512;42.662;23.254;2023-08-06T10:25:34;5.60;;;2.70;;
71679;SDS011;59512;42.662;23.254;2023-08-06T10:28:06;6.20;;;2.50;;
71679;SDS011;59512;42.662;23.254;2023-08-06T10:30:34;5.60;;;2.70;;
71679;SDS011;59512;42.662;23.254;2023-08-06T10:33:06;6.32;;;3.00;;
71679;SDS011;59512;42.662;23.254;2023-08-06T10:38:11;5.47;;;2.50;;
71679;SDS011;59512;42.662;23.254;2023-08-06T10:40:42;5.15;;;2.42;;
71679;SDS011;59512;42.662;23.254;2023-08-06T10:43:24;5.90;;;2.58;;
71679;SDS011;59512;42.662;23.254;2023-08-06T10:45:51;5.63;;;2.63;;
71679;SDS011;59512;42.662;23.254;2023-08-06T10:48:30;6.07;;;2.70;;
71679;SDS011;59512;42.662;23.254;2023-08-06T10:50:59;5.20;;;2.47;;
71679;SDS011;59512;42.662;23.254;2023-08-06T10:53:25;6.10;;;3.30;;
71679;SDS011;59512;42.662;23.254;2023-08-06T10:55:50;5.73;;;3.00;;
71679;SDS011;59512;42.662;23.254;2023-08-06T10:58:16;6.00;;;3.00;;
71679;SDS011;59512;42.662;23.254;2023-08-06T11:00:42;7.17;;;3.17;;
71679;SDS011;59512;42.662;23.254;2023-08-06T11:03:07;5.80;;;3.20;;
71679;SDS011;59512;42.662;23.254;2023-08-06T11:05:33;6.90;;;3.00;;
71679;SDS011;59512;42.662;23.254;2023-08-06T11:07:58;6.30;;;2.70;;
71679;SDS011;59512;42.662;23.254;2023-08-06T11:10:24;5.70;;;2.90;;
71679;SDS011;59512;42.662;23.254;2023-08-06T11:12:49;5.43;;;3.17;;
71679;SDS011;59512;42.662;23.254;2023-08-06T11:15:15;5.90;;;3.17;;
71679;SDS011;59512;42.662;23.254;2023-08-06T11:17:40;9.38;;;3.83;;
71679;SDS011;59512;42.662;23.254;2023-08-06T11:20:07;8.93;;;4.93;;
71679;SDS011;59512;42.662;23.254;2023-08-06T11:22:32;8.43;;;3.95;;
71679;SDS011;59512;42.662;23.254;2023-08-06T11:24:58;8.77;;;4.30;;
71679;SDS011;59512;42.662;23.254;2023-08-06T11:27:26;11.13;;;5.43;;
71679;SDS011;59512;42.662;23.254;2023-08-06T11:29:53;11.20;;;5.72;;
71679;SDS011;59512;42.662;23.254;2023-08-06T11:32:18;8.75;;;5.20;;
71679;SDS011;59512;42.662;23.254;2023-08-06T11:34:44;8.83;;;5.10;;
71679;SDS011;59512;42.662;23.254;2023-08-06T11:37:09;8.53;;;4.90;;
71679;SDS011;59512;42.662;23.254;2023-08-06T11:39:36;8.82;;;5.22;;
71679;SDS011;59512;42.662;23.254;2023-08-06T11:42:03;9.50;;;4.75;;
71679;SDS011;59512;42.662;23.254;2023-08-06T11:44:32;7.07;;;4.53;;
71679;SDS011;59512;42.662;23.254;2023-08-06T11:47:00;7.38;;;4.40;;
71679;SDS011;59512;42.662;23.254;2023-08-06T11:54:51;7.47;;;4.50;;
71679;SDS011;59512;42.662;23.254;2023-08-06T11:57:37;6.40;;;3.80;;
71679;SDS011;59512;42.662;23.254;2023-08-06T12:00:05;6.63;;;4.20;;
71679;SDS011;59512;42.662;23.254;2023-08-06T12:02:32;7.68;;;3.97;;
71679;SDS011;59512;42.662;23.254;2023-08-06T12:05:20;6.43;;;3.65;;
71679;SDS011;59512;42.662;23.254;2023-08-06T12:07:52;7.25;;;3.92;;
71679;SDS011;59512;42.662;23.254;2023-08-06T12:10:20;9.53;;;4.30;;
71679;SDS011;59512;42.662;23.254;2023-08-06T12:12:46;7.30;;;4.35;;
71679;SDS011;59512;42.662;23.254;2023-08-06T12:15:12;7.80;;;4.70;;
71679;SDS011;59512;42.662;23.254;2023-08-06T12:17:38;7.63;;;4.90;;
71679;SDS011;59512;42.662;23.254;2023-08-06T12:20:04;8.20;;;4.97;;
71679;SDS011;59512;42.662;23.254;2023-08-06T12:22:30;7.55;;;4.88;;
71679;SDS011;59512;42.662;23.254;2023-08-06T12:25:06;9.97;;;5.30;;
71679;SDS011;59512;42.662;23.254;2023-08-06T12:27:38;7.53;;;5.00;;
71679;SDS011;59512;42.662;23.254;2023-08-06T12:30:04;10.82;;;4.97;;
71679;SDS011;59512;42.662;23.254;2023-08-06T12:32:30;8.57;;;5.00;;
71679;SDS011;59512;42.662;23.254;2023-08-06T12:34:56;8.53;;;5.27;;
71679;SDS011;59512;42.662;23.254;2023-08-06T12:37:21;8.45;;;5.18;;
71679;SDS011;59512;42.662;23.254;2023-08-06T12:39:48;7.00;;;4.77;;
71679;SDS011;59512;42.662;23.254;2023-08-06T12:42:13;10.85;;;5.30;;
71679;SDS011;59512;42.662;23.254;2023-08-06T12:44:39;8.90;;;5.80;;
71679;SDS011;59512;42.662;23.254;2023-08-06T12:47:04;10.27;;;5.47;;
71679;SDS011;59512;42.662;23.254;2023-08-06T12:49:29;8.10;;;5.37;;
71679;SDS011;59512;42.662;23.254;2023-08-06T12:51:56;8.27;;;5.30;;
71679;SDS011;59512;42.662;23.254;2023-08-06T12:54:23;8.65;;;5.13;;
71679;SDS011;59512;42.662;23.254;2023-08-06T12:56:48;8.77;;;5.50;;
71679;SDS011;59512;42.662;23.254;2023-08-06T12:59:15;8.35;;;5.10;;
71679;SDS011;59512;42.662;23.254;2023-08-06T13:01:42;8.07;;;4.90;;
71679;SDS011;59512;42.662;23.254;2023-08-06T13:04:07;7.35;;;4.65;;
71679;SDS011;59512;42.662;23.254;2023-08-06T13:06:33;7.18;;;4.93;;
71679;SDS011;59512;42.662;23.254;2023-08-06T13:09:02;8.00;;;4.70;;
71679;SDS011;59512;42.662;23.254;2023-08-06T13:11:28;7.80;;;4.70;;
71679;SDS011;59512;42.662;23.254;2023-08-06T13:13:54;8.00;;;4.18;;
71679;SDS011;59512;42.662;23.254;2023-08-06T13:16:20;8.73;;;4.77;;
71679;SDS011;59512;42.662;23.254;2023-08-06T13:18:45;7.78;;;4.32;;
71679;SDS011;59512;42.662;23.254;2023-08-06T13:21:11;8.30;;;4.83;;
71679;SDS011;59512;42.662;23.254;2023-08-06T13:23:36;8.40;;;5.03;;
71679;SDS011;59512;42.662;23.254;2023-08-06T13:26:01;9.40;;;4.80;;
71679;SDS011;59512;42.662;23.254;2023-08-06T13:28:27;7.25;;;5.05;;
71679;SDS011;59512;42.662;23.254;2023-08-06T13:30:52;8.83;;;5.13;;
71679;SDS011;59512;42.662;23.254;2023-08-06T13:33:18;8.73;;;5.57;;
71679;SDS011;59512;42.662;23.254;2023-08-06T13:35:43;8.40;;;4.90;;
71679;SDS011;59512;42.662;23.254;2023-08-06T13:38:09;7.63;;;5.10;;
71679;SDS011;59512;42.662;23.254;2023-08-06T13:40:35;7.72;;;5.13;;
71679;SDS011;59512;42.662;23.254;2023-08-06T13:43:00;7.53;;;4.83;;
71679;SDS011;59512;42.662;23.254;2023-08-06T13:45:26;7.20;;;4.82;;
71679;SDS011;59512;42.662;23.254;2023-08-06T13:47:51;8.27;;;4.93;;
71679;SDS011;59512;42.662;23.254;2023-08-06T13:50:17;10.10;;;5.13;;
71679;SDS011;59512;42.662;23.254;2023-08-06T13:52:42;8.48;;;4.70;;
71679;SDS011;59512;42.662;23.254;2023-08-06T13:55:08;8.20;;;4.93;;
71679;SDS011;59512;42.662;23.254;2023-08-06T13:57:34;9.13;;;4.60;;
71679;SDS011;59512;42.662;23.254;2023-08-06T14:00:00;6.55;;;4.53;;
71679;SDS011;59512;42.662;23.254;2023-08-06T14:02:25;8.80;;;4.93;;
71679;SDS011;59512;42.662;23.254;2023-08-06T14:04:54;7.23;;;4.17;;
71679;SDS011;59512;42.662;23.254;2023-08-06T14:07:20;7.68;;;4.40;;
71679;SDS011;59512;42.662;23.254;2023-08-06T14:09:45;7.00;;;4.30;;
71679;SDS011;59512;42.662;23.254;2023-08-06T14:12:12;7.07;;;3.90;;
71679;SDS011;59512;42.662;23.254;2023-08-06T14:14:38;5.88;;;3.67;;
71679;SDS011;59512;42.662;23.254;2023-08-06T14:17:03;6.90;;;3.50;;
71679;SDS011;59512;42.662;23.254;2023-08-06T14:19:29;7.53;;;4.00;;
71679;SDS011;59512;42.662;23.254;2023-08-06T14:21:54;5.80;;;3.55;;
71679;SDS011;59512;42.662;23.254;2023-08-06T14:24:20;7.33;;;3.43;;
71679;SDS011;59512;42.662;23.254;2023-08-06T14:26:46;7.30;;;3.60;;
71679;SDS011;59512;42.662;23.254;2023-08-06T14:29:11;6.53;;;3.80;;
71679;SDS011;59512;42.662;23.254;2023-08-06T14:31:38;5.60;;;3.28;;
71679;SDS011;59512;42.662;23.254;2023-08-06T14:34:04;6.88;;;3.25;;
71679;SDS011;59512;42.662;23.254;2023-08-06T14:36:29;5.90;;;3.00;;
71679;SDS011;59512;42.662;23.254;2023-08-06T14:38:55;5.90;;;2.30;;